createdAt,value
2023-04-03T00:00:56.537Z,4.32
2023-04-03T00:05:58.327Z,8.30
2023-04-03T00:10:59.978Z,4.70
2023-04-03T00:16:01.913Z,5.43
2023-04-03T00:21:04.308Z,4.68
2023-04-03T00:26:05.967Z,3.78
2023-04-03T00:31:07.687Z,4.32
2023-04-03T00:36:10.735Z,3.40
2023-04-03T00:41:12.894Z,6.55
2023-04-03T00:46:15.001Z,3.67
2023-04-03T00:51:25.619Z,4.18
2023-04-03T00:56:30.774Z,3.85
2023-04-03T01:01:33.053Z,5.35
2023-04-03T01:06:38.169Z,4.95
2023-04-03T01:11:42.502Z,3.72
2023-04-03T01:16:44.235Z,4.40
2023-04-03T01:22:04.694Z,7.20
2023-04-03T01:27:09.153Z,3.28
2023-04-03T01:32:11.314Z,3.25
2023-04-03T01:37:12.992Z,4.82
2023-04-03T01:42:16.916Z,5.18
2023-04-03T01:47:19.850Z,3.63
2023-04-03T01:52:21.616Z,3.30
2023-04-03T01:57:23.388Z,4.15
2023-04-03T02:02:25.699Z,5.50
2023-04-03T02:07:28.258Z,3.80
2023-04-03T02:12:29.903Z,3.87
2023-04-03T02:17:31.635Z,3.35
2023-04-03T02:22:33.285Z,4.28
2023-04-03T02:27:34.969Z,5.25
2023-04-03T02:32:36.597Z,3.57
2023-04-03T02:37:39.071Z,3.40
2023-04-03T02:42:40.771Z,3.87
2023-04-03T02:47:42.535Z,4.10
2023-04-03T02:52:45.110Z,5.07
2023-04-03T02:57:47.176Z,3.27
2023-04-03T03:02:50.460Z,3.57
2023-04-03T03:07:52.155Z,4.63
2023-04-03T03:12:53.802Z,6.93
2023-04-03T03:17:55.572Z,4.40
2023-04-03T03:22:57.280Z,5.63
2023-04-03T03:27:58.902Z,3.93
2023-04-03T03:33:00.750Z,4.17
2023-04-03T03:38:02.417Z,3.83
2023-04-03T03:43:04.306Z,3.13
2023-04-03T03:48:06.864Z,4.27
2023-04-03T03:53:08.909Z,4.93
2023-04-03T03:58:10.774Z,5.53
2023-04-03T04:03:13.092Z,6.60
2023-04-03T04:08:16.056Z,6.80
2023-04-03T04:13:19.733Z,6.03
2023-04-03T04:18:23.538Z,5.73
2023-04-03T04:23:25.684Z,5.03
2023-04-03T04:28:28.772Z,4.17
2023-04-03T04:33:32.490Z,5.17
2023-04-03T04:38:37.217Z,4.10
2023-04-03T04:43:39.247Z,3.83
2023-04-03T04:48:41.501Z,3.43
2023-04-03T04:53:44.383Z,6.23
2023-04-03T04:58:49.059Z,4.73
2023-04-03T05:03:53.300Z,5.23
2023-04-03T05:08:54.982Z,5.53
2023-04-03T05:13:57.737Z,6.57
2023-04-03T05:19:01.140Z,3.10
2023-04-03T05:24:04.428Z,7.53
2023-04-03T05:29:08.911Z,4.13
2023-04-03T05:34:12.484Z,3.67
2023-04-03T05:39:15.633Z,4.50
2023-04-03T05:44:19.382Z,6.57
2023-04-03T05:49:22.640Z,4.80
2023-04-03T05:54:27.031Z,8.70
2023-04-03T05:59:34.877Z,8.50
2023-04-03T06:04:36.935Z,7.07
2023-04-03T06:09:38.788Z,3.67
2023-04-03T06:14:40.557Z,6.70
2023-04-03T06:19:42.360Z,6.20
2023-04-03T06:24:44.776Z,4.30
2023-04-03T06:29:46.499Z,4.87
2023-04-03T06:34:48.227Z,8.23
2023-04-03T06:39:50.386Z,8.50
2023-04-03T06:44:52.050Z,9.87
2023-04-03T06:49:53.723Z,4.80
2023-04-03T06:54:58.644Z,5.23
2023-04-03T07:00:00.890Z,5.00
2023-04-03T07:05:03.417Z,7.03
2023-04-03T07:10:06.578Z,6.07
2023-04-03T07:15:09.366Z,12.93
2023-04-03T07:20:11.925Z,5.93
2023-04-03T07:25:15.975Z,8.03
2023-04-03T07:30:17.586Z,6.00
2023-04-03T07:35:19.911Z,6.50
2023-04-03T07:40:22.149Z,8.00
2023-04-03T07:45:24.887Z,6.25
2023-04-03T07:50:27.228Z,7.95
2023-04-03T07:55:28.910Z,7.25
2023-04-03T08:00:31.099Z,8.15
2023-04-03T08:05:32.968Z,7.33
2023-04-03T08:10:35.746Z,8.27
2023-04-03T08:15:38.105Z,7.53
2023-04-03T08:20:41.439Z,7.67
2023-04-03T08:25:44.082Z,7.75
2023-04-03T08:30:47.072Z,8.88
2023-04-03T08:35:48.723Z,8.05
2023-04-03T08:41:03.128Z,9.55
2023-04-03T08:46:07.403Z,8.50
2023-04-03T08:51:18.069Z,10.73
2023-04-03T08:56:20.120Z,11.23
2023-04-03T09:01:31.024Z,10.65
2023-04-03T09:06:33.973Z,11.25
2023-04-03T09:11:51.052Z,10.25
2023-04-03T09:17:02.080Z,11.25
2023-04-03T09:22:17.684Z,10.38
2023-04-03T09:27:19.403Z,10.80
2023-04-03T09:32:32.994Z,10.43
2023-04-03T09:37:43.660Z,10.57
2023-04-03T09:42:51.996Z,10.57
2023-04-03T09:48:18.039Z,11.25
2023-04-03T09:53:40.841Z,13.20
2023-04-03T09:58:50.478Z,12.43
2023-04-03T10:04:17.724Z,13.27
2023-04-03T10:09:28.488Z,12.88
2023-04-03T10:14:31.057Z,11.93
2023-04-03T10:19:44.513Z,12.00
2023-04-03T10:25:04.142Z,12.40
2023-04-03T10:30:30.064Z,13.10
2023-04-03T10:36:12.637Z,14.82
2023-04-03T10:41:35.412Z,15.88
2023-04-03T10:46:49.534Z,15.07
2023-04-03T10:52:22.276Z,16.23
2023-04-03T10:57:26.166Z,14.32
2023-04-03T11:02:37.624Z,15.63
2023-04-03T11:07:43.633Z,16.63
2023-04-03T11:12:50.106Z,15.93
2023-04-03T11:18:21.971Z,15.48
2023-04-03T11:23:35.679Z,15.38
2023-04-03T11:28:45.453Z,15.68
2023-04-03T11:33:59.483Z,14.90
2023-04-03T11:39:11.177Z,17.05
2023-04-03T11:44:48.577Z,16.85
2023-04-03T11:50:06.508Z,16.58
2023-04-03T11:55:20.401Z,15.77
2023-04-03T12:00:53.615Z,16.35
2023-04-03T12:06:18.296Z,16.33
2023-04-03T12:11:19.836Z,17.20
2023-04-03T12:16:27.306Z,17.20
2023-04-03T12:21:35.033Z,16.90
2023-04-03T12:26:58.092Z,17.35
2023-04-03T12:32:24.076Z,17.25
2023-04-03T12:37:25.656Z,16.75
2023-04-03T12:42:30.176Z,17.20
2023-04-03T12:47:39.170Z,17.20
2023-04-03T12:52:45.098Z,17.20
2023-04-03T12:57:47.339Z,16.80
2023-04-03T13:02:49.265Z,17.27
2023-04-03T13:08:15.950Z,17.15
2023-04-03T13:13:17.987Z,17.40
2023-04-03T13:18:36.473Z,18.17
2023-04-03T13:23:41.494Z,17.20
2023-04-03T13:28:44.653Z,17.13
2023-04-03T13:34:04.033Z,17.27
2023-04-03T13:39:27.919Z,17.05
2023-04-03T13:44:36.713Z,17.45
2023-04-03T13:49:41.276Z,17.08
2023-04-03T13:54:43.157Z,17.13
2023-04-03T13:59:45.061Z,17.20
2023-04-03T14:04:57.385Z,17.05
2023-04-03T14:09:59.583Z,17.10
2023-04-03T14:15:02.859Z,17.33
2023-04-03T14:20:05.300Z,17.23
2023-04-03T14:25:07.327Z,16.70
2023-04-03T14:30:33.938Z,17.15
2023-04-03T14:35:35.586Z,16.98
2023-04-03T14:40:37.441Z,16.38
2023-04-03T14:45:40.099Z,16.77
2023-04-03T14:50:49.125Z,16.52
2023-04-03T14:55:56.444Z,16.08
2023-04-03T15:00:58.097Z,16.10
2023-04-03T15:06:00.250Z,15.88
2023-04-03T15:11:02.080Z,16.95
2023-04-03T15:16:05.011Z,16.50
2023-04-03T15:21:06.743Z,16.35
2023-04-03T15:26:08.782Z,16.25
2023-04-03T15:31:10.691Z,16.23
2023-04-03T15:41:18.704Z,16.58
2023-04-03T15:46:20.579Z,15.60
2023-04-03T15:51:22.252Z,16.10
2023-04-03T15:56:23.841Z,16.85
2023-04-03T16:01:25.767Z,16.02
2023-04-03T16:06:30.320Z,16.20
2023-04-03T16:11:31.927Z,16.38
2023-04-03T16:16:33.947Z,15.20
2023-04-03T16:21:35.820Z,15.95
2023-04-03T16:26:37.523Z,15.63
2023-04-03T16:31:39.332Z,15.48
2023-04-03T16:36:41.102Z,15.45
2023-04-03T16:41:42.775Z,15.57
2023-04-03T16:46:46.236Z,16.33
2023-04-03T16:51:50.370Z,16.17
2023-04-03T16:56:52.027Z,16.20
2023-04-03T17:01:53.716Z,17.60
2023-04-03T17:06:56.208Z,16.67
2023-04-03T17:11:57.791Z,16.50
2023-04-03T17:16:59.546Z,15.80
2023-04-03T17:22:02.376Z,14.98
2023-04-03T17:27:04.243Z,13.90
2023-04-03T17:32:05.967Z,14.68
2023-04-03T17:37:07.742Z,14.90
2023-04-03T17:42:09.528Z,15.32
2023-04-03T17:47:11.204Z,14.00
2023-04-03T17:52:12.867Z,14.43
2023-04-03T17:57:14.497Z,13.77
2023-04-03T18:02:16.329Z,14.82
2023-04-03T18:07:17.989Z,14.35
2023-04-03T18:12:19.850Z,14.73
2023-04-03T18:17:22.341Z,14.52
2023-04-03T18:22:24.492Z,14.52
2023-04-03T18:27:28.099Z,14.23
2023-04-03T18:32:29.849Z,14.68
2023-04-03T18:37:31.863Z,14.38
2023-04-03T18:42:33.600Z,14.52
2023-04-03T18:47:36.867Z,14.70
2023-04-03T18:52:38.518Z,14.50
2023-04-03T18:57:40.155Z,14.18
2023-04-03T19:02:42.449Z,13.80
2023-04-03T19:07:44.837Z,14.50
2023-04-03T19:12:48.459Z,14.60
2023-04-03T19:17:51.015Z,15.10
2023-04-03T19:22:53.744Z,14.00
2023-04-03T19:27:55.641Z,14.15
2023-04-03T19:32:57.248Z,13.88
2023-04-03T19:37:58.870Z,13.82
2023-04-03T19:43:00.696Z,13.35
2023-04-03T19:48:03.319Z,12.60
2023-04-03T19:53:06.932Z,12.73
2023-04-03T19:58:08.550Z,12.80
2023-04-03T20:03:10.283Z,13.17
2023-04-03T20:08:14.465Z,12.63
2023-04-03T20:13:16.081Z,13.52
2023-04-03T20:18:19.681Z,12.40
2023-04-03T20:23:22.416Z,12.10
2023-04-03T20:28:24.508Z,12.55
2023-04-03T20:33:29.003Z,13.30
2023-04-03T20:38:30.629Z,12.10
2023-04-03T20:43:32.708Z,12.70
2023-04-03T20:48:34.375Z,12.68
2023-04-03T20:53:36.064Z,12.73
2023-04-03T20:58:41.298Z,12.52
2023-04-03T21:03:43.433Z,12.65
2023-04-03T21:09:22.621Z,13.13
2023-04-03T21:15:01.842Z,11.23
2023-04-03T21:20:03.605Z,11.70
2023-04-03T21:25:05.414Z,11.63
2023-04-03T21:30:07.933Z,10.75
2023-04-03T21:35:09.819Z,10.90
2023-04-03T21:40:11.566Z,11.25
2023-04-03T21:45:16.034Z,10.30
2023-04-03T21:50:19.244Z,11.55
2023-04-03T21:55:20.845Z,11.35
2023-04-03T22:00:23.064Z,12.10
2023-04-03T22:05:24.928Z,11.57
2023-04-03T22:10:26.735Z,11.50
2023-04-03T22:15:28.350Z,11.75
2023-04-03T22:20:29.943Z,11.23
2023-04-03T22:25:32.242Z,10.80
2023-04-03T22:30:33.911Z,11.48
2023-04-03T22:35:35.520Z,11.52
2023-04-03T22:40:37.550Z,11.05
2023-04-03T22:45:50.253Z,10.45
2023-04-03T22:50:51.962Z,9.43
2023-04-03T22:56:04.921Z,8.43
2023-04-03T23:01:11.622Z,8.63
2023-04-03T23:06:13.504Z,8.23
2023-04-03T23:11:15.159Z,8.73
2023-04-03T23:16:17.437Z,7.43
2023-04-03T23:21:19.102Z,7.32
2023-04-03T23:26:20.698Z,8.35
2023-04-03T23:31:22.914Z,8.70
2023-04-03T23:36:24.527Z,7.78
2023-04-03T23:41:26.122Z,8.35
2023-04-03T23:46:27.756Z,8.25
2023-04-03T23:51:29.472Z,8.48
2023-04-03T23:56:31.484Z,7.47
